createdAt,value
2019-02-17T00:06:26.639Z,39
2019-02-17T00:16:30.146Z,38.9
2019-02-17T00:26:33.668Z,38.9
2019-02-17T00:36:37.167Z,38.9
2019-02-17T00:46:40.678Z,38.8
2019-02-17T00:56:44.167Z,38.9
2019-02-17T01:06:47.722Z,38.9
2019-02-17T01:16:51.235Z,38.9
2019-02-17T01:26:54.732Z,38.9
2019-02-17T01:36:58.243Z,38.9
2019-02-17T01:47:01.759Z,38.8
2019-02-17T01:57:05.287Z,38.9
2019-02-17T02:07:08.807Z,38.8
2019-02-17T02:17:12.317Z,38.8
2019-02-17T02:27:15.810Z,38.8
2019-02-17T02:37:19.339Z,38.7
2019-02-17T02:47:22.812Z,38.8
2019-02-17T02:57:26.339Z,38.8
2019-02-17T03:07:29.830Z,38.7
2019-02-17T03:17:33.352Z,38.7
2019-02-17T03:27:36.863Z,38.7
2019-02-17T03:37:40.435Z,38.7
2019-02-17T03:47:43.992Z,38.6
2019-02-17T03:58:17.824Z,38.6
2019-02-17T04:08:21.337Z,38.6
2019-02-17T04:18:24.868Z,38.6
2019-02-17T04:28:28.367Z,38.5
2019-02-17T04:38:31.864Z,38.5
2019-02-17T04:48:35.346Z,38.5
2019-02-17T04:58:38.841Z,38.5
2019-02-17T05:08:42.345Z,38.5
2019-02-17T05:18:45.881Z,38.4
2019-02-17T05:28:50.424Z,38.4
2019-02-17T05:38:53.941Z,38.4
2019-02-17T05:48:57.436Z,38.4
2019-02-17T05:59:00.929Z,38.3
2019-02-17T06:09:04.429Z,38.1
2019-02-17T06:19:07.949Z,38.1
2019-02-17T06:29:11.471Z,38
2019-02-17T06:39:14.982Z,37.9
2019-02-17T06:49:18.518Z,37.8
2019-02-17T06:59:22.030Z,37.8
2019-02-17T07:09:25.558Z,37.7
2019-02-17T07:19:29.045Z,37.7
2019-02-17T07:29:32.570Z,37.7
2019-02-17T07:39:36.078Z,37.6
2019-02-17T07:49:39.574Z,37.5
2019-02-17T07:59:43.060Z,37.6
2019-02-17T08:09:46.559Z,37.5
2019-02-17T08:19:50.055Z,37.5
2019-02-17T08:29:53.561Z,37.4
2019-02-17T08:39:57.066Z,37.4
2019-02-17T08:50:00.566Z,37.4
2019-02-17T09:00:04.081Z,37.4
2019-02-17T09:10:09.057Z,37.4
2019-02-17T09:20:12.654Z,37.4
2019-02-17T09:30:16.174Z,37.3
2019-02-17T09:40:19.698Z,37.3
2019-02-17T09:50:23.188Z,37.3
2019-02-17T10:00:26.688Z,37.3
2019-02-17T10:10:30.172Z,37.3
2019-02-17T10:20:33.690Z,37.3
2019-02-17T10:30:37.232Z,37.3
2019-02-17T10:40:40.724Z,37.2
2019-02-17T10:50:44.222Z,37.3
2019-02-17T11:00:48.009Z,37.3
2019-02-17T11:10:51.533Z,37.3
2019-02-17T11:20:55.091Z,37.3
2019-02-17T11:30:58.591Z,37.4
2019-02-17T11:41:02.108Z,37.3
2019-02-17T11:51:05.652Z,37.3
2019-02-17T12:01:09.163Z,37.3
2019-02-17T12:11:12.691Z,37.4
2019-02-17T12:21:16.288Z,37.4
2019-02-17T12:31:19.790Z,37.5
2019-02-17T12:41:23.295Z,37.5
2019-02-17T12:51:26.817Z,37.5
2019-02-17T13:01:30.342Z,37.5
2019-02-17T13:11:33.807Z,37.6
2019-02-17T13:21:37.310Z,37.6
2019-02-17T13:31:40.819Z,37.6
2019-02-17T13:41:44.344Z,37.6
2019-02-17T13:51:47.866Z,37.7
2019-02-17T14:01:51.362Z,37.7
2019-02-17T14:11:54.873Z,37.8
2019-02-17T14:21:58.359Z,37.8
2019-02-17T14:32:01.857Z,37.8
2019-02-17T14:42:05.335Z,37.8
2019-02-17T14:52:08.859Z,37.9
2019-02-17T15:02:12.377Z,37.9
2019-02-17T15:12:15.891Z,37.9
2019-02-17T15:22:19.409Z,38
2019-02-17T15:32:22.908Z,38
2019-02-17T15:42:27.439Z,38
2019-02-17T15:52:30.954Z,38
2019-02-17T16:02:34.476Z,38.1
2019-02-17T16:12:37.989Z,38.1
2019-02-17T16:22:41.535Z,38.1
2019-02-17T16:32:45.074Z,38.1
2019-02-17T16:42:48.606Z,38.2
2019-02-17T16:52:52.103Z,38.3
2019-02-17T17:02:55.616Z,38.3
2019-02-17T17:12:59.150Z,38.3
2019-02-17T17:23:02.642Z,38.4
2019-02-17T17:33:08.677Z,38.4
2019-02-17T17:43:12.188Z,38.4
2019-02-17T17:53:15.701Z,38.4
2019-02-17T18:03:19.229Z,38.4
2019-02-17T18:13:22.712Z,38.4
2019-02-17T18:23:26.239Z,38.4
2019-02-17T18:33:29.847Z,38.4
2019-02-17T18:43:33.371Z,38.4
2019-02-17T18:53:36.881Z,38.4
2019-02-17T19:03:40.400Z,38.4
2019-02-17T19:13:43.931Z,38.4
2019-02-17T19:23:47.419Z,38.4
2019-02-17T19:33:50.924Z,38.4
2019-02-17T19:43:54.458Z,38.4
2019-02-17T19:53:57.937Z,38.4
2019-02-17T20:04:01.433Z,38.4
2019-02-17T20:14:04.981Z,38.4
2019-02-17T20:24:08.540Z,38.4
2019-02-17T20:34:14.421Z,38.4
2019-02-17T20:44:18.247Z,38.3
2019-02-17T20:54:21.770Z,38.3
2019-02-17T21:04:25.306Z,38.3
2019-02-17T21:14:28.830Z,38.3
2019-02-17T21:24:32.365Z,38.3
2019-02-17T21:34:35.872Z,38.3
2019-02-17T21:44:39.371Z,38.3
2019-02-17T21:54:42.899Z,38.3
2019-02-17T22:04:46.419Z,38.2
2019-02-17T22:14:49.878Z,38.3
2019-02-17T22:24:53.352Z,38.3
2019-02-17T22:34:56.875Z,38.3
2019-02-17T22:45:00.423Z,38.3
2019-02-17T22:55:03.974Z,38.3
2019-02-17T23:05:07.517Z,38.4
2019-02-17T23:15:11.030Z,38.4
2019-02-17T23:25:14.538Z,38.4
2019-02-17T23:35:18.014Z,38.3
2019-02-17T23:45:21.529Z,38.3
2019-02-17T23:55:25.056Z,38.4
